sensor_id;sensor_type;location;lat;lon;timestamp;pressure;altitude;pressure_sealevel;temperature;humidity
72118;BME280;59992;47.490;8.736;2022-07-10T00:00:15;97136.06;;;15.24;77.09
72118;BME280;59992;47.490;8.736;2022-07-10T00:03:10;97132.10;;;15.24;76.91
72118;BME280;59992;47.490;8.736;2022-07-10T00:06:01;97126.59;;;15.21;77.18
72118;BME280;59992;47.490;8.736;2022-07-10T00:08:51;97124.98;;;15.21;77.26
72118;BME280;59992;47.490;8.736;2022-07-10T00:11:44;97124.30;;;15.24;75.54
72118;BME280;59992;47.490;8.736;2022-07-10T00:14:34;97124.55;;;15.29;77.27
72118;BME280;59992;47.490;8.736;2022-07-10T00:17:25;97122.04;;;15.33;77.65
72118;BME280;59992;47.490;8.736;2022-07-10T00:20:16;97120.06;;;15.34;77.52
72118;BME280;59992;47.490;8.736;2022-07-10T00:23:07;97116.11;;;15.37;77.11
72118;BME280;59992;47.490;8.736;2022-07-10T00:25:57;97118.18;;;15.41;78.13
72118;BME280;59992;47.490;8.736;2022-07-10T00:28:48;97119.98;;;15.42;77.21
72118;BME280;59992;47.490;8.736;2022-07-10T00:31:39;97121.13;;;15.44;77.59
72118;BME280;59992;47.490;8.736;2022-07-10T00:34:29;97122.27;;;15.45;77.62
72118;BME280;59992;47.490;8.736;2022-07-10T00:37:20;97123.04;;;15.49;77.19
72118;BME280;59992;47.490;8.736;2022-07-10T00:40:11;97120.08;;;15.52;77.15
72118;BME280;59992;47.490;8.736;2022-07-10T00:43:02;97123.98;;;15.56;76.55
72118;BME280;59992;47.490;8.736;2022-07-10T00:45:53;97128.95;;;15.61;76.33
72118;BME280;59992;47.490;8.736;2022-07-10T00:48:44;97129.80;;;15.64;77.92
72118;BME280;59992;47.490;8.736;2022-07-10T00:51:35;97131.86;;;15.65;76.85
72118;BME280;59992;47.490;8.736;2022-07-10T00:54:27;97129.58;;;15.67;75.28
72118;BME280;59992;47.490;8.736;2022-07-10T00:57:19;97124.46;;;15.67;76.53
72118;BME280;59992;47.490;8.736;2022-07-10T01:00:11;97121.56;;;15.69;74.93
72118;BME280;59992;47.490;8.736;2022-07-10T01:03:02;97122.87;;;15.71;76.04
72118;BME280;59992;47.490;8.736;2022-07-10T01:05:53;97123.86;;;15.74;76.54
72118;BME280;59992;47.490;8.736;2022-07-10T01:08:45;97134.71;;;15.75;76.50
72118;BME280;59992;47.490;8.736;2022-07-10T01:11:37;97129.98;;;15.73;76.75
72118;BME280;59992;47.490;8.736;2022-07-10T01:14:28;97127.21;;;15.68;76.58
72118;BME280;59992;47.490;8.736;2022-07-10T01:17:19;97125.37;;;15.63;75.92
72118;BME280;59992;47.490;8.736;2022-07-10T01:20:11;97122.67;;;15.54;77.27
72118;BME280;59992;47.490;8.736;2022-07-10T01:23:01;97119.14;;;15.49;75.92
72118;BME280;59992;47.490;8.736;2022-07-10T01:25:52;97121.27;;;15.47;75.12
72118;BME280;59992;47.490;8.736;2022-07-10T01:28:43;97124.84;;;15.41;75.90
72118;BME280;59992;47.490;8.736;2022-07-10T01:31:34;97124.95;;;15.33;77.18
72118;BME280;59992;47.490;8.736;2022-07-10T01:34:25;97124.00;;;15.25;77.39
72118;BME280;59992;47.490;8.736;2022-07-10T01:37:15;97130.63;;;15.18;76.08
72118;BME280;59992;47.490;8.736;2022-07-10T01:40:08;97129.58;;;15.09;77.78
72118;BME280;59992;47.490;8.736;2022-07-10T01:42:59;97132.91;;;15.00;78.39
72118;BME280;59992;47.490;8.736;2022-07-10T01:45:50;97132.81;;;14.95;77.87
72118;BME280;59992;47.490;8.736;2022-07-10T01:48:40;97132.54;;;14.90;77.12
72118;BME280;59992;47.490;8.736;2022-07-10T01:51:31;97130.67;;;14.84;79.48
72118;BME280;59992;47.490;8.736;2022-07-10T01:54:22;97132.58;;;14.80;79.34
72118;BME280;59992;47.490;8.736;2022-07-10T01:57:12;97137.58;;;14.75;77.94
72118;BME280;59992;47.490;8.736;2022-07-10T02:00:05;97139.21;;;14.68;79.06
72118;BME280;59992;47.490;8.736;2022-07-10T02:02:57;97141.84;;;14.61;80.54
72118;BME280;59992;47.490;8.736;2022-07-10T02:06:05;97144.56;;;14.59;80.26
72118;BME280;59992;47.490;8.736;2022-07-10T02:08:56;97144.98;;;14.55;80.14
72118;BME280;59992;47.490;8.736;2022-07-10T02:11:47;97137.25;;;14.47;80.14
72118;BME280;59992;47.490;8.736;2022-07-10T02:14:38;97143.09;;;14.45;80.75
72118;BME280;59992;47.490;8.736;2022-07-10T02:17:29;97140.05;;;14.36;80.45
72118;BME280;59992;47.490;8.736;2022-07-10T02:20:19;97148.27;;;14.34;81.84
72118;BME280;59992;47.490;8.736;2022-07-10T02:23:10;97151.63;;;14.34;79.26
72118;BME280;59992;47.490;8.736;2022-07-10T02:26:01;97150.61;;;14.30;80.39
72118;BME280;59992;47.490;8.736;2022-07-10T02:28:52;97149.16;;;14.28;80.35
72118;BME280;59992;47.490;8.736;2022-07-10T02:31:43;97145.55;;;14.26;80.85
72118;BME280;59992;47.490;8.736;2022-07-10T02:34:34;97147.21;;;14.27;81.51
72118;BME280;59992;47.490;8.736;2022-07-10T02:37:24;97145.98;;;14.27;81.13
72118;BME280;59992;47.490;8.736;2022-07-10T02:40:15;97152.22;;;14.26;79.48
72118;BME280;59992;47.490;8.736;2022-07-10T02:43:05;97149.70;;;14.25;78.97
72118;BME280;59992;47.490;8.736;2022-07-10T02:45:56;97152.20;;;14.24;80.32
72118;BME280;59992;47.490;8.736;2022-07-10T02:48:47;97150.65;;;14.21;80.67
72118;BME280;59992;47.490;8.736;2022-07-10T02:51:38;97151.08;;;14.17;81.02
72118;BME280;59992;47.490;8.736;2022-07-10T02:54:28;97150.44;;;14.13;80.32
72118;BME280;59992;47.490;8.736;2022-07-10T02:57:19;97150.46;;;14.08;80.59
72118;BME280;59992;47.490;8.736;2022-07-10T03:00:13;97156.36;;;14.02;80.24
72118;BME280;59992;47.490;8.736;2022-07-10T03:03:03;97160.73;;;13.98;81.22
72118;BME280;59992;47.490;8.736;2022-07-10T03:05:54;97160.02;;;13.95;81.77
72118;BME280;59992;47.490;8.736;2022-07-10T03:08:45;97155.59;;;13.93;81.42
72118;BME280;59992;47.490;8.736;2022-07-10T03:11:36;97160.16;;;13.94;81.93
72118;BME280;59992;47.490;8.736;2022-07-10T03:14:26;97159.25;;;13.94;81.61
72118;BME280;59992;47.490;8.736;2022-07-10T03:17:17;97160.92;;;13.94;80.27
72118;BME280;59992;47.490;8.736;2022-07-10T03:20:09;97158.42;;;13.96;81.45
72118;BME280;59992;47.490;8.736;2022-07-10T03:22:59;97154.34;;;13.98;80.96
72118;BME280;59992;47.490;8.736;2022-07-10T03:25:50;97153.33;;;14.03;80.42
72118;BME280;59992;47.490;8.736;2022-07-10T03:28:41;97159.46;;;14.09;81.95
72118;BME280;59992;47.490;8.736;2022-07-10T03:31:32;97158.75;;;14.15;81.55
72118;BME280;59992;47.490;8.736;2022-07-10T03:34:22;97159.45;;;14.17;81.09
72118;BME280;59992;47.490;8.736;2022-07-10T03:37:13;97158.27;;;14.19;81.38
72118;BME280;59992;47.490;8.736;2022-07-10T03:40:04;97160.14;;;14.24;81.90
72118;BME280;59992;47.490;8.736;2022-07-10T03:42:55;97155.32;;;14.29;81.44
72118;BME280;59992;47.490;8.736;2022-07-10T03:45:45;97159.39;;;14.33;80.86
72118;BME280;59992;47.490;8.736;2022-07-10T03:48:36;97155.46;;;14.37;80.89
72118;BME280;59992;47.490;8.736;2022-07-10T03:51:26;97159.98;;;14.40;81.67
72118;BME280;59992;47.490;8.736;2022-07-10T03:54:17;97156.26;;;14.42;80.33
72118;BME280;59992;47.490;8.736;2022-07-10T03:57:07;97145.30;;;14.44;80.39
72118;BME280;59992;47.490;8.736;2022-07-10T04:00:16;97142.76;;;14.51;81.25
72118;BME280;59992;47.490;8.736;2022-07-10T04:03:07;97144.70;;;14.56;81.27
72118;BME280;59992;47.490;8.736;2022-07-10T04:05:58;97140.98;;;14.61;81.29
72118;BME280;59992;47.490;8.736;2022-07-10T04:08:49;97144.23;;;14.64;80.20
72118;BME280;59992;47.490;8.736;2022-07-10T04:11:39;97146.22;;;14.68;81.53
72118;BME280;59992;47.490;8.736;2022-07-10T04:14:30;97141.73;;;14.68;81.21
72118;BME280;59992;47.490;8.736;2022-07-10T04:17:21;97144.88;;;14.71;81.26
72118;BME280;59992;47.490;8.736;2022-07-10T04:20:12;97145.66;;;14.76;80.22
72118;BME280;59992;47.490;8.736;2022-07-10T04:23:03;97145.68;;;14.80;81.19
72118;BME280;59992;47.490;8.736;2022-07-10T04:25:53;97145.10;;;14.86;80.61
72118;BME280;59992;47.490;8.736;2022-07-10T04:28:44;97143.52;;;14.88;81.01
72118;BME280;59992;47.490;8.736;2022-07-10T04:31:35;97141.91;;;14.88;81.86
72118;BME280;59992;47.490;8.736;2022-07-10T04:34:26;97146.31;;;14.97;81.83
72118;BME280;59992;47.490;8.736;2022-07-10T04:37:16;97148.33;;;15.03;80.62
72118;BME280;59992;47.490;8.736;2022-07-10T04:40:10;97149.83;;;15.12;80.03
72118;BME280;59992;47.490;8.736;2022-07-10T04:43:00;97150.54;;;15.20;79.29
72118;BME280;59992;47.490;8.736;2022-07-10T04:45:51;97155.23;;;15.28;79.76
72118;BME280;59992;47.490;8.736;2022-07-10T04:48:41;97154.88;;;15.35;79.21
72118;BME280;59992;47.490;8.736;2022-07-10T04:51:32;97154.77;;;15.42;79.47
72118;BME280;59992;47.490;8.736;2022-07-10T04:54:23;97154.05;;;15.50;79.75
72118;BME280;59992;47.490;8.736;2022-07-10T04:57:14;97157.36;;;15.58;79.20
72118;BME280;59992;47.490;8.736;2022-07-10T05:00:06;97157.76;;;15.66;79.59
72118;BME280;59992;47.490;8.736;2022-07-10T05:02:56;97157.39;;;15.73;79.51
72118;BME280;59992;47.490;8.736;2022-07-10T05:05:47;97160.00;;;15.80;79.58
72118;BME280;59992;47.490;8.736;2022-07-10T05:08:37;97163.29;;;15.86;79.40
72118;BME280;59992;47.490;8.736;2022-07-10T05:11:28;97160.94;;;15.94;78.58
72118;BME280;59992;47.490;8.736;2022-07-10T05:14:20;97160.72;;;16.05;77.72
72118;BME280;59992;47.490;8.736;2022-07-10T05:17:12;97158.75;;;16.23;77.88
72118;BME280;59992;47.490;8.736;2022-07-10T05:20:02;97158.01;;;16.50;77.43
72118;BME280;59992;47.490;8.736;2022-07-10T05:22:53;97158.88;;;17.34;75.74
72118;BME280;59992;47.490;8.736;2022-07-10T05:25:44;97155.06;;;18.57;73.48
72118;BME280;59992;47.490;8.736;2022-07-10T05:28:35;97160.15;;;19.80;70.85
72118;BME280;59992;47.490;8.736;2022-07-10T05:31:25;97164.48;;;20.93;63.03
72118;BME280;59992;47.490;8.736;2022-07-10T05:34:16;97164.20;;;21.99;59.75
72118;BME280;59992;47.490;8.736;2022-07-10T05:37:07;97169.01;;;22.74;57.60
72118;BME280;59992;47.490;8.736;2022-07-10T05:39:57;97167.83;;;22.81;58.84
72118;BME280;59992;47.490;8.736;2022-07-10T05:42:48;97172.63;;;22.74;54.98
72118;BME280;59992;47.490;8.736;2022-07-10T05:45:39;97176.23;;;22.91;53.83
72118;BME280;59992;47.490;8.736;2022-07-10T05:48:29;97177.77;;;22.93;52.34
72118;BME280;59992;47.490;8.736;2022-07-10T05:51:20;97175.88;;;22.98;51.33
72118;BME280;59992;47.490;8.736;2022-07-10T05:54:11;97174.96;;;23.09;51.19
72118;BME280;59992;47.490;8.736;2022-07-10T05:57:02;97175.34;;;23.58;50.24
72118;BME280;59992;47.490;8.736;2022-07-10T05:59:53;97170.98;;;24.12;45.82
72118;BME280;59992;47.490;8.736;2022-07-10T06:02:44;97178.91;;;24.57;50.64
72118;BME280;59992;47.490;8.736;2022-07-10T06:05:35;97178.15;;;25.21;49.16
72118;BME280;59992;47.490;8.736;2022-07-10T06:08:27;97177.62;;;25.58;47.53
72118;BME280;59992;47.490;8.736;2022-07-10T06:11:18;97181.73;;;26.04;45.08
72118;BME280;59992;47.490;8.736;2022-07-10T06:14:08;97177.83;;;26.52;44.84
72118;BME280;59992;47.490;8.736;2022-07-10T06:16:59;97175.80;;;26.42;41.77
72118;BME280;59992;47.490;8.736;2022-07-10T06:19:49;97178.63;;;26.45;41.03
72118;BME280;59992;47.490;8.736;2022-07-10T06:22:39;97177.33;;;26.87;40.40
72118;BME280;59992;47.490;8.736;2022-07-10T06:25:30;97183.19;;;27.32;42.40
72118;BME280;59992;47.490;8.736;2022-07-10T06:28:20;97177.05;;;27.60;37.66
72118;BME280;59992;47.490;8.736;2022-07-10T06:31:13;97184.88;;;27.09;39.12
72118;BME280;59992;47.490;8.736;2022-07-10T06:34:03;97187.66;;;26.45;39.43
72118;BME280;59992;47.490;8.736;2022-07-10T06:36:54;97190.30;;;25.76;40.62
72118;BME280;59992;47.490;8.736;2022-07-10T06:39:49;97190.39;;;25.01;41.74
72118;BME280;59992;47.490;8.736;2022-07-10T06:42:40;97186.63;;;24.65;42.69
72118;BME280;59992;47.490;8.736;2022-07-10T06:45:31;97184.34;;;24.25;43.16
72118;BME280;59992;47.490;8.736;2022-07-10T06:48:22;97186.30;;;23.98;43.90
72118;BME280;59992;47.490;8.736;2022-07-10T06:51:14;97184.33;;;23.68;44.59
72118;BME280;59992;47.490;8.736;2022-07-10T06:54:05;97187.37;;;23.31;45.18
72118;BME280;59992;47.490;8.736;2022-07-10T06:56:56;97185.19;;;22.84;46.25
72118;BME280;59992;47.490;8.736;2022-07-10T06:59:47;97187.23;;;22.65;46.88
72118;BME280;59992;47.490;8.736;2022-07-10T07:02:38;97187.55;;;22.83;46.90
72118;BME280;59992;47.490;8.736;2022-07-10T07:05:31;97188.21;;;22.84;47.19
72118;BME280;59992;47.490;8.736;2022-07-10T07:08:22;97183.45;;;23.06;47.06
72118;BME280;59992;47.490;8.736;2022-07-10T07:11:13;97180.98;;;23.66;46.31
72118;BME280;59992;47.490;8.736;2022-07-10T07:14:03;97186.96;;;24.43;44.72
72118;BME280;59992;47.490;8.736;2022-07-10T07:16:57;97191.27;;;24.91;44.95
72118;BME280;59992;47.490;8.736;2022-07-10T07:19:52;97189.30;;;24.90;43.65
72118;BME280;59992;47.490;8.736;2022-07-10T07:23:04;97192.73;;;24.90;44.11
72118;BME280;59992;47.490;8.736;2022-07-10T07:26:00;97188.27;;;25.02;43.69
72118;BME280;59992;47.490;8.736;2022-07-10T07:28:51;97189.92;;;25.22;42.70
72118;BME280;59992;47.490;8.736;2022-07-10T07:31:42;97193.79;;;25.31;42.93
72118;BME280;59992;47.490;8.736;2022-07-10T07:34:33;97191.87;;;25.68;42.52
72118;BME280;59992;47.490;8.736;2022-07-10T07:37:23;97188.41;;;26.12;41.41
72118;BME280;59992;47.490;8.736;2022-07-10T07:40:24;97187.64;;;26.28;41.56
72118;BME280;59992;47.490;8.736;2022-07-10T07:43:15;97181.34;;;26.08;41.39
72118;BME280;59992;47.490;8.736;2022-07-10T07:46:06;97180.27;;;25.93;41.61
72118;BME280;59992;47.490;8.736;2022-07-10T07:48:57;97183.81;;;25.92;42.41
72118;BME280;59992;47.490;8.736;2022-07-10T07:51:49;97185.98;;;26.04;42.24
72118;BME280;59992;47.490;8.736;2022-07-10T07:54:40;97186.16;;;26.28;41.49
72118;BME280;59992;47.490;8.736;2022-07-10T07:57:31;97193.05;;;26.54;40.74
72118;BME280;59992;47.490;8.736;2022-07-10T08:00:25;97195.12;;;26.90;39.72
72118;BME280;59992;47.490;8.736;2022-07-10T08:03:15;97191.28;;;26.94;38.81
72118;BME280;59992;47.490;8.736;2022-07-10T08:06:06;97192.16;;;27.01;39.25
72118;BME280;59992;47.490;8.736;2022-07-10T08:08:57;97188.40;;;26.96;39.20
72118;BME280;59992;47.490;8.736;2022-07-10T08:11:48;97194.73;;;27.04;38.91
72118;BME280;59992;47.490;8.736;2022-07-10T08:14:39;97191.66;;;27.02;38.03
72118;BME280;59992;47.490;8.736;2022-07-10T08:17:29;97188.02;;;26.97;39.12
72118;BME280;59992;47.490;8.736;2022-07-10T08:20:20;97189.52;;;27.00;38.86
72118;BME280;59992;47.490;8.736;2022-07-10T08:23:11;97187.96;;;26.29;39.65
72118;BME280;59992;47.490;8.736;2022-07-10T08:26:02;97191.96;;;26.00;40.42
72118;BME280;59992;47.490;8.736;2022-07-10T08:28:55;97185.77;;;25.83;40.68
72118;BME280;59992;47.490;8.736;2022-07-10T08:31:45;97187.89;;;25.97;41.00
72118;BME280;59992;47.490;8.736;2022-07-10T08:34:36;97178.86;;;26.14;40.68
72118;BME280;59992;47.490;8.736;2022-07-10T08:37:27;97180.17;;;26.05;40.02
72118;BME280;59992;47.490;8.736;2022-07-10T08:40:19;97179.12;;;25.58;41.07
72118;BME280;59992;47.490;8.736;2022-07-10T08:43:12;97182.92;;;25.49;41.94
72118;BME280;59992;47.490;8.736;2022-07-10T08:46:03;97177.05;;;25.81;40.98
72118;BME280;59992;47.490;8.736;2022-07-10T08:48:55;97176.05;;;25.69;41.13
72118;BME280;59992;47.490;8.736;2022-07-10T08:51:56;97173.45;;;25.38;41.11
72118;BME280;59992;47.490;8.736;2022-07-10T08:54:47;97172.09;;;25.03;42.22
72118;BME280;59992;47.490;8.736;2022-07-10T08:57:39;97168.71;;;24.87;45.21
72118;BME280;59992;47.490;8.736;2022-07-10T09:00:30;97173.61;;;25.27;42.17
72118;BME280;59992;47.490;8.736;2022-07-10T09:03:20;97171.30;;;25.44;41.92
72118;BME280;59992;47.490;8.736;2022-07-10T09:06:11;97173.61;;;25.82;41.38
72118;BME280;59992;47.490;8.736;2022-07-10T09:09:05;97171.40;;;26.09;40.45
72118;BME280;59992;47.490;8.736;2022-07-10T09:11:58;97168.30;;;26.28;40.49
72118;BME280;59992;47.490;8.736;2022-07-10T09:14:49;97170.23;;;26.59;40.11
72118;BME280;59992;47.490;8.736;2022-07-10T09:17:55;97174.24;;;26.83;38.97
72118;BME280;59992;47.490;8.736;2022-07-10T09:20:46;97163.66;;;26.89;39.63
72118;BME280;59992;47.490;8.736;2022-07-10T09:23:37;97169.58;;;27.02;39.40
72118;BME280;59992;47.490;8.736;2022-07-10T09:26:28;97168.08;;;26.94;38.28
72118;BME280;59992;47.490;8.736;2022-07-10T09:29:18;97168.27;;;26.61;39.11
72118;BME280;59992;47.490;8.736;2022-07-10T09:32:09;97164.14;;;26.07;41.87
72118;BME280;59992;47.490;8.736;2022-07-10T09:35:00;97168.89;;;26.21;40.24
72118;BME280;59992;47.490;8.736;2022-07-10T09:38:09;97165.95;;;26.44;39.56
72118;BME280;59992;47.490;8.736;2022-07-10T09:41:13;97161.67;;;26.61;39.34
72118;BME280;59992;47.490;8.736;2022-07-10T09:44:05;97164.01;;;26.77;38.61
72118;BME280;59992;47.490;8.736;2022-07-10T09:46:57;97160.36;;;26.72;38.59
72118;BME280;59992;47.490;8.736;2022-07-10T09:49:47;97162.35;;;26.75;38.60
72118;BME280;59992;47.490;8.736;2022-07-10T09:52:39;97163.33;;;26.22;39.67
72118;BME280;59992;47.490;8.736;2022-07-10T09:55:33;97154.33;;;26.08;39.92
72118;BME280;59992;47.490;8.736;2022-07-10T09:58:25;97146.69;;;25.65;39.87
72118;BME280;59992;47.490;8.736;2022-07-10T10:01:19;97150.65;;;25.57;40.82
72118;BME280;59992;47.490;8.736;2022-07-10T10:04:13;97151.78;;;25.48;40.82
72118;BME280;59992;47.490;8.736;2022-07-10T10:07:05;97153.21;;;25.18;41.05
72118;BME280;59992;47.490;8.736;2022-07-10T10:10:03;97150.91;;;24.86;42.77
72118;BME280;59992;47.490;8.736;2022-07-10T10:12:58;97153.28;;;24.90;42.02
72118;BME280;59992;47.490;8.736;2022-07-10T10:15:51;97154.16;;;24.84;42.19
72118;BME280;59992;47.490;8.736;2022-07-10T10:18:43;97144.30;;;24.64;42.00
72118;BME280;59992;47.490;8.736;2022-07-10T10:21:51;97138.34;;;24.63;42.21
72118;BME280;59992;47.490;8.736;2022-07-10T10:24:44;97142.04;;;24.74;42.17
72118;BME280;59992;47.490;8.736;2022-07-10T10:27:35;97143.65;;;24.64;42.25
72118;BME280;59992;47.490;8.736;2022-07-10T10:30:27;97133.52;;;24.57;42.18
72118;BME280;59992;47.490;8.736;2022-07-10T10:33:43;97129.79;;;24.50;42.56
72118;BME280;59992;47.490;8.736;2022-07-10T10:36:48;97131.30;;;24.54;43.35
72118;BME280;59992;47.490;8.736;2022-07-10T10:42:39;97130.80;;;24.74;43.01
72118;BME280;59992;47.490;8.736;2022-07-10T10:45:34;97128.41;;;24.87;42.13
72118;BME280;59992;47.490;8.736;2022-07-10T10:48:26;97127.05;;;24.86;41.62
72118;BME280;59992;47.490;8.736;2022-07-10T10:51:17;97125.39;;;24.91;42.00
72118;BME280;59992;47.490;8.736;2022-07-10T10:54:07;97118.20;;;24.77;41.60
72118;BME280;59992;47.490;8.736;2022-07-10T10:57:14;97118.80;;;24.66;41.55
72118;BME280;59992;47.490;8.736;2022-07-10T11:00:07;97106.56;;;24.50;41.75
72118;BME280;59992;47.490;8.736;2022-07-10T11:03:16;97103.65;;;24.40;41.97
72118;BME280;59992;47.490;8.736;2022-07-10T11:06:06;97100.14;;;24.29;43.02
72118;BME280;59992;47.490;8.736;2022-07-10T11:08:59;97099.54;;;24.19;42.85
72118;BME280;59992;47.490;8.736;2022-07-10T11:12:04;97099.39;;;24.16;42.89
72118;BME280;59992;47.490;8.736;2022-07-10T11:14:55;97095.29;;;24.19;43.55
72118;BME280;59992;47.490;8.736;2022-07-10T11:17:47;97093.00;;;24.10;42.01
72118;BME280;59992;47.490;8.736;2022-07-10T11:20:40;97086.02;;;24.13;42.96
72118;BME280;59992;47.490;8.736;2022-07-10T11:23:51;97089.05;;;24.12;42.30
72118;BME280;59992;47.490;8.736;2022-07-10T11:27:02;97088.06;;;24.10;43.31
72118;BME280;59992;47.490;8.736;2022-07-10T11:30:00;97089.58;;;24.03;44.62
72118;BME280;59992;47.490;8.736;2022-07-10T11:32:51;97086.27;;;23.92;44.64
72118;BME280;59992;47.490;8.736;2022-07-10T11:35:41;97089.27;;;24.01;43.57
72118;BME280;59992;47.490;8.736;2022-07-10T11:38:34;97082.10;;;24.07;43.08
72118;BME280;59992;47.490;8.736;2022-07-10T11:41:25;97073.98;;;24.19;44.16
72118;BME280;59992;47.490;8.736;2022-07-10T11:44:17;97078.52;;;24.27;42.51
72118;BME280;59992;47.490;8.736;2022-07-10T11:47:11;97074.62;;;24.33;43.05
72118;BME280;59992;47.490;8.736;2022-07-10T11:50:01;97074.02;;;24.30;42.08
72118;BME280;59992;47.490;8.736;2022-07-10T11:52:53;97070.59;;;24.16;43.48
72118;BME280;59992;47.490;8.736;2022-07-10T11:55:44;97067.05;;;24.06;42.25
72118;BME280;59992;47.490;8.736;2022-07-10T11:58:36;97072.74;;;24.05;42.09
72118;BME280;59992;47.490;8.736;2022-07-10T12:01:27;97074.64;;;23.96;42.86
72118;BME280;59992;47.490;8.736;2022-07-10T12:04:24;97065.11;;;23.91;42.40
72118;BME280;59992;47.490;8.736;2022-07-10T12:07:15;97066.09;;;23.77;42.11
72118;BME280;59992;47.490;8.736;2022-07-10T12:10:11;97063.02;;;23.69;42.29
72118;BME280;59992;47.490;8.736;2022-07-10T12:13:10;97059.92;;;23.66;43.04
72118;BME280;59992;47.490;8.736;2022-07-10T12:16:02;97056.95;;;23.70;41.91
72118;BME280;59992;47.490;8.736;2022-07-10T12:18:54;97059.23;;;23.66;41.77
72118;BME280;59992;47.490;8.736;2022-07-10T12:21:47;97057.66;;;23.69;41.69
72118;BME280;59992;47.490;8.736;2022-07-10T12:24:38;97052.17;;;23.67;41.87
72118;BME280;59992;47.490;8.736;2022-07-10T12:27:41;97056.19;;;23.65;42.10
72118;BME280;59992;47.490;8.736;2022-07-10T12:30:41;97055.65;;;23.67;42.07
72118;BME280;59992;47.490;8.736;2022-07-10T12:33:33;97052.33;;;23.67;41.77
72118;BME280;59992;47.490;8.736;2022-07-10T12:36:25;97051.50;;;23.61;41.43
72118;BME280;59992;47.490;8.736;2022-07-10T12:39:17;97046.31;;;23.59;43.24
72118;BME280;59992;47.490;8.736;2022-07-10T12:42:08;97046.90;;;23.62;42.50
72118;BME280;59992;47.490;8.736;2022-07-10T12:45:12;97044.40;;;23.69;42.63
72118;BME280;59992;47.490;8.736;2022-07-10T12:48:03;97043.73;;;23.80;41.89
72118;BME280;59992;47.490;8.736;2022-07-10T12:50:55;97038.92;;;23.90;41.73
72118;BME280;59992;47.490;8.736;2022-07-10T12:53:47;97035.01;;;24.01;41.42
72118;BME280;59992;47.490;8.736;2022-07-10T12:56:38;97036.66;;;24.10;41.72
72118;BME280;59992;47.490;8.736;2022-07-10T12:59:29;97040.02;;;24.23;41.16
72118;BME280;59992;47.490;8.736;2022-07-10T13:02:22;97030.27;;;24.28;40.95
72118;BME280;59992;47.490;8.736;2022-07-10T13:05:26;97037.95;;;24.43;40.46
72118;BME280;59992;47.490;8.736;2022-07-10T13:08:19;97037.11;;;24.52;40.28
72118;BME280;59992;47.490;8.736;2022-07-10T13:11:12;97037.77;;;24.64;40.49
72118;BME280;59992;47.490;8.736;2022-07-10T13:14:03;97040.81;;;24.83;39.93
72118;BME280;59992;47.490;8.736;2022-07-10T13:16:54;97036.60;;;24.95;39.28
72118;BME280;59992;47.490;8.736;2022-07-10T13:19:45;97028.77;;;24.93;37.82
72118;BME280;59992;47.490;8.736;2022-07-10T13:22:35;97030.68;;;25.02;38.33
72118;BME280;59992;47.490;8.736;2022-07-10T13:25:26;97026.74;;;25.10;38.79
72118;BME280;59992;47.490;8.736;2022-07-10T13:28:17;97027.39;;;25.18;39.65
72118;BME280;59992;47.490;8.736;2022-07-10T13:31:07;97027.38;;;25.20;39.22
72118;BME280;59992;47.490;8.736;2022-07-10T13:33:58;97021.71;;;25.22;39.45
72118;BME280;59992;47.490;8.736;2022-07-10T13:36:49;97024.75;;;25.20;39.73
72118;BME280;59992;47.490;8.736;2022-07-10T13:39:40;97027.39;;;25.24;39.11
72118;BME280;59992;47.490;8.736;2022-07-10T13:42:31;97026.86;;;25.26;38.89
72118;BME280;59992;47.490;8.736;2022-07-10T13:45:22;97023.38;;;25.28;39.00
72118;BME280;59992;47.490;8.736;2022-07-10T13:48:15;97019.88;;;25.28;38.67
72118;BME280;59992;47.490;8.736;2022-07-10T13:51:06;97010.44;;;25.23;38.60
72118;BME280;59992;47.490;8.736;2022-07-10T13:53:57;97008.20;;;25.13;39.44
72118;BME280;59992;47.490;8.736;2022-07-10T13:56:48;97008.08;;;25.03;40.56
72118;BME280;59992;47.490;8.736;2022-07-10T13:59:39;96999.84;;;24.91;39.73
72118;BME280;59992;47.490;8.736;2022-07-10T14:02:30;97005.41;;;24.85;39.43
72118;BME280;59992;47.490;8.736;2022-07-10T14:05:20;97004.40;;;24.81;39.05
72118;BME280;59992;47.490;8.736;2022-07-10T14:08:11;97005.50;;;24.74;38.83
72118;BME280;59992;47.490;8.736;2022-07-10T14:11:01;97008.66;;;24.75;39.41
72118;BME280;59992;47.490;8.736;2022-07-10T14:13:52;97009.08;;;24.84;38.96
72118;BME280;59992;47.490;8.736;2022-07-10T14:16:42;97012.21;;;24.92;38.12
72118;BME280;59992;47.490;8.736;2022-07-10T14:19:33;97014.00;;;24.94;37.63
72118;BME280;59992;47.490;8.736;2022-07-10T14:22:24;97010.70;;;24.99;37.31
72118;BME280;59992;47.490;8.736;2022-07-10T14:25:15;97009.20;;;25.00;38.89
72118;BME280;59992;47.490;8.736;2022-07-10T14:28:06;97005.70;;;25.04;37.58
72118;BME280;59992;47.490;8.736;2022-07-10T14:30:57;97005.92;;;25.12;37.95
72118;BME280;59992;47.490;8.736;2022-07-10T14:33:49;96998.01;;;25.09;38.97
72118;BME280;59992;47.490;8.736;2022-07-10T14:36:40;97003.87;;;25.18;38.66
72118;BME280;59992;47.490;8.736;2022-07-10T14:39:31;97003.98;;;25.28;38.69
72118;BME280;59992;47.490;8.736;2022-07-10T14:42:21;97003.20;;;25.28;38.74
72118;BME280;59992;47.490;8.736;2022-07-10T14:45:15;97001.95;;;25.26;39.66
72118;BME280;59992;47.490;8.736;2022-07-10T14:48:06;96998.22;;;25.32;38.48
72118;BME280;59992;47.490;8.736;2022-07-10T14:50:57;97001.36;;;25.35;39.48
72118;BME280;59992;47.490;8.736;2022-07-10T14:53:48;96989.98;;;25.35;38.26
72118;BME280;59992;47.490;8.736;2022-07-10T14:56:39;97000.06;;;25.45;39.11
72118;BME280;59992;47.490;8.736;2022-07-10T14:59:29;96995.04;;;25.53;39.11
72118;BME280;59992;47.490;8.736;2022-07-10T15:02:20;96998.97;;;25.57;39.12
72118;BME280;59992;47.490;8.736;2022-07-10T15:05:10;96988.67;;;25.61;37.70
72118;BME280;59992;47.490;8.736;2022-07-10T15:08:01;96990.11;;;25.62;38.18
72118;BME280;59992;47.490;8.736;2022-07-10T15:10:53;96991.34;;;25.63;38.52
72118;BME280;59992;47.490;8.736;2022-07-10T15:13:44;96996.06;;;25.62;38.73